createdAt,value
2017-08-29T00:00:31.119Z,60.2
2017-08-29T00:01:11.577Z,60.2
2017-08-29T00:01:52.031Z,60.39
2017-08-29T00:02:32.485Z,60.2
2017-08-29T00:03:12.943Z,60.3
2017-08-29T00:03:53.402Z,60.3
2017-08-29T00:04:33.859Z,60.2
2017-08-29T00:05:14.311Z,60.2
2017-08-29T00:05:54.767Z,60.49
2017-08-29T00:06:35.221Z,60.39
2017-08-29T00:07:15.675Z,60.3
2017-08-29T00:07:56.124Z,60.39
2017-08-29T00:08:36.578Z,60.2
2017-08-29T00:09:17.034Z,60.49
2017-08-29T00:09:57.493Z,60.2
2017-08-29T00:10:37.948Z,60.3
2017-08-29T00:11:18.401Z,60.2
2017-08-29T00:11:58.864Z,60.2
2017-08-29T00:12:39.318Z,60.2
2017-08-29T00:13:19.778Z,60.2
2017-08-29T00:14:00.236Z,60.3
2017-08-29T00:14:40.705Z,60.2
2017-08-29T00:15:21.148Z,60.2
2017-08-29T00:16:01.607Z,60.1
2017-08-29T00:16:42.064Z,60.1
2017-08-29T00:17:22.618Z,60.3
2017-08-29T00:18:03.079Z,60.1
2017-08-29T00:18:43.534Z,60.3
2017-08-29T00:19:24.105Z,60.3
2017-08-29T00:20:04.568Z,60.1
2017-08-29T00:20:45.021Z,60.2
2017-08-29T00:21:25.473Z,60.3
2017-08-29T00:22:06.225Z,60.3
2017-08-29T00:22:46.601Z,60.3
2017-08-29T00:23:27.054Z,60.3
2017-08-29T00:24:07.613Z,60.3
2017-08-29T00:24:48.074Z,60.2
2017-08-29T00:25:28.526Z,60.39
2017-08-29T00:26:08.988Z,60.2
2017-08-29T00:26:49.479Z,60.39
2017-08-29T00:27:29.909Z,60.2
2017-08-29T00:28:10.358Z,60.3
2017-08-29T00:28:50.820Z,59.91
2017-08-29T00:29:31.333Z,60.3
2017-08-29T00:30:11.794Z,60.39
2017-08-29T00:30:52.270Z,59.91
2017-08-29T00:31:32.753Z,60.39
2017-08-29T00:32:13.212Z,60.3
2017-08-29T00:32:53.660Z,60.3
2017-08-29T00:33:34.112Z,60.3
2017-08-29T00:34:14.567Z,60.1
2017-08-29T00:34:55.025Z,60.3
2017-08-29T00:35:35.486Z,60.39
2017-08-29T00:36:15.942Z,60.39
2017-08-29T00:36:56.402Z,60.49
2017-08-29T00:37:36.856Z,60.49
2017-08-29T00:38:17.308Z,60.49
2017-08-29T00:38:57.758Z,60.49
2017-08-29T00:39:38.238Z,60.49
2017-08-29T00:40:18.696Z,60.39
2017-08-29T00:40:59.151Z,60.39
2017-08-29T00:41:39.613Z,60.49
2017-08-29T00:42:20.069Z,60.39
2017-08-29T00:43:00.530Z,60.49
2017-08-29T00:43:40.990Z,60.39
2017-08-29T00:44:21.437Z,60.3
2017-08-29T00:45:01.981Z,60.3
2017-08-29T00:45:42.443Z,60.68
2017-08-29T00:46:22.894Z,60.49
2017-08-29T00:47:03.346Z,60.68
2017-08-29T00:47:43.786Z,60.68
2017-08-29T00:48:24.241Z,60.68
2017-08-29T00:49:04.809Z,60.68
2017-08-29T00:49:45.268Z,60.78
2017-08-29T00:50:25.720Z,60.78
2017-08-29T00:51:06.181Z,60.78
2017-08-29T00:51:46.633Z,60.68
2017-08-29T00:52:27.091Z,60.68
2017-08-29T00:53:07.549Z,60.78
2017-08-29T00:53:48.007Z,60.68
2017-08-29T00:54:28.465Z,60.88
2017-08-29T00:55:08.923Z,60.88
2017-08-29T00:55:49.375Z,60.78
2017-08-29T00:56:29.859Z,60.58
2017-08-29T00:57:10.277Z,60.88
2017-08-29T00:57:50.740Z,60.88
2017-08-29T00:58:31.189Z,60.88
2017-08-29T00:59:11.639Z,60.88
2017-08-29T00:59:52.110Z,60.78
2017-08-29T01:00:32.561Z,60.68
2017-08-29T01:01:13.028Z,60.88
2017-08-29T01:01:53.490Z,60.68
2017-08-29T01:02:33.954Z,60.68
2017-08-29T01:03:14.393Z,60.58
2017-08-29T01:03:54.854Z,60.78
2017-08-29T01:04:35.307Z,60.78
2017-08-29T01:05:15.758Z,60.68
2017-08-29T01:05:56.213Z,60.68
2017-08-29T01:06:36.672Z,60.88
2017-08-29T01:07:17.119Z,60.97
2017-08-29T01:07:57.577Z,60.78
2017-08-29T01:08:38.040Z,60.88
2017-08-29T01:10:35.736Z,60.94
2017-08-29T01:11:16.190Z,60.85
2017-08-29T01:11:56.652Z,60.88
2017-08-29T01:12:37.093Z,60.88
2017-08-29T01:13:17.549Z,60.68
2017-08-29T01:13:57.996Z,60.78
2017-08-29T01:14:38.456Z,60.68
2017-08-29T01:15:18.899Z,60.78
2017-08-29T01:15:59.356Z,60.88
2017-08-29T01:16:39.816Z,60.55
2017-08-29T01:17:20.271Z,60.58
2017-08-29T01:18:00.724Z,60.58
2017-08-29T01:18:41.179Z,60.68
2017-08-29T01:19:21.740Z,60.58
2017-08-29T01:20:02.194Z,60.78
2017-08-29T01:20:42.649Z,60.68
2017-08-29T01:21:23.103Z,60.68
2017-08-29T01:22:03.553Z,60.88
2017-08-29T01:22:44.006Z,60.68
2017-08-29T01:23:24.461Z,60.68
2017-08-29T01:24:04.925Z,60.68
2017-08-29T01:24:45.371Z,60.78
2017-08-29T01:25:25.822Z,60.49
2017-08-29T01:26:06.267Z,60.97
2017-08-29T01:26:46.726Z,60.75
2017-08-29T01:27:27.162Z,60.68
2017-08-29T01:28:07.612Z,60.68
2017-08-29T01:28:48.059Z,60.75
2017-08-29T01:29:28.517Z,60.97
2017-08-29T01:30:08.964Z,60.78
2017-08-29T01:30:49.417Z,60.97
2017-08-29T01:31:29.863Z,60.78
2017-08-29T01:32:10.319Z,60.58
2017-08-29T01:32:50.775Z,60.94
2017-08-29T01:33:31.224Z,60.88
2017-08-29T01:34:11.681Z,60.88
2017-08-29T01:34:52.141Z,60.78
2017-08-29T01:35:32.612Z,60.78
2017-08-29T01:36:13.067Z,60.78
2017-08-29T01:36:53.519Z,60.78
2017-08-29T01:37:33.981Z,60.78
2017-08-29T01:38:14.442Z,60.78
2017-08-29T01:38:54.883Z,60.88
2017-08-29T01:39:35.333Z,60.78
2017-08-29T01:40:15.791Z,60.78
2017-08-29T01:40:56.242Z,60.88
2017-08-29T01:41:36.698Z,60.88
2017-08-29T01:42:17.151Z,60.78
2017-08-29T01:42:57.603Z,60.78
2017-08-29T01:43:38.059Z,60.97
2017-08-29T01:44:18.503Z,60.88
2017-08-29T01:44:58.958Z,60.78
2017-08-29T01:45:39.414Z,60.75
2017-08-29T01:46:19.869Z,60.97
2017-08-29T01:47:00.327Z,60.78
2017-08-29T01:47:40.786Z,60.97
2017-08-29T01:48:21.243Z,60.85
2017-08-29T01:49:01.700Z,60.97
2017-08-29T01:49:42.163Z,60.85
2017-08-29T01:50:22.592Z,60.78
2017-08-29T01:51:03.045Z,60.97
2017-08-29T01:51:43.529Z,60.94
2017-08-29T01:52:23.955Z,60.78
2017-08-29T01:53:04.416Z,60.55
2017-08-29T01:53:44.860Z,60.68
2017-08-29T01:54:25.313Z,60.97
2017-08-29T01:55:05.778Z,60.68
2017-08-29T01:55:46.233Z,60.94
2017-08-29T01:56:26.681Z,60.97
2017-08-29T01:57:07.135Z,60.68
2017-08-29T01:57:47.586Z,60.55
2017-08-29T01:58:28.136Z,60.75
2017-08-29T01:59:08.586Z,60.78
2017-08-29T01:59:49.041Z,60.85
2017-08-29T02:00:29.500Z,60.68
2017-08-29T02:01:10.001Z,60.65
2017-08-29T02:01:50.453Z,60.78
2017-08-29T02:02:31.397Z,60.88
2017-08-29T02:03:12.804Z,60.78
2017-08-29T02:03:53.260Z,60.78
2017-08-29T02:04:33.718Z,60.65
2017-08-29T02:05:14.173Z,60.88
2017-08-29T02:05:54.627Z,60.94
2017-08-29T02:06:35.102Z,60.94
2017-08-29T02:07:15.561Z,60.97
2017-08-29T02:07:56.007Z,60.94
2017-08-29T02:08:36.450Z,60.65
2017-08-29T02:09:16.904Z,60.75
2017-08-29T02:09:57.361Z,60.85
2017-08-29T02:10:37.826Z,60.88
2017-08-29T02:11:18.283Z,60.65
2017-08-29T02:11:58.732Z,60.94
2017-08-29T02:12:39.189Z,61.33
2017-08-29T02:13:19.644Z,61.43
2017-08-29T02:14:00.094Z,60.55
2017-08-29T02:14:40.552Z,61.43
2017-08-29T02:15:21.869Z,61.33
2017-08-29T02:16:02.329Z,61.24
2017-08-29T02:16:42.772Z,61.33
2017-08-29T02:17:23.225Z,61.33
2017-08-29T02:18:03.681Z,61.36
2017-08-29T02:18:44.133Z,61.43
2017-08-29T02:19:24.578Z,61.24
2017-08-29T02:20:05.029Z,61.33
2017-08-29T02:20:45.474Z,61.24
2017-08-29T02:21:25.936Z,61.24
2017-08-29T02:22:06.392Z,60.94
2017-08-29T02:22:46.851Z,60.94
2017-08-29T02:23:27.303Z,61.07
2017-08-29T02:24:07.821Z,61.33
2017-08-29T02:24:48.276Z,61.14
2017-08-29T02:25:28.731Z,61.14
2017-08-29T02:26:09.181Z,60.94
2017-08-29T02:26:49.644Z,60.94
2017-08-29T02:27:30.113Z,61.14
2017-08-29T02:28:10.576Z,61.14
2017-08-29T02:28:51.034Z,61.14
2017-08-29T02:29:31.482Z,61.33
2017-08-29T02:30:11.936Z,61.33
2017-08-29T02:30:52.391Z,61.04
2017-08-29T02:31:32.869Z,61.33
2017-08-29T02:32:13.321Z,60.94
2017-08-29T02:32:53.774Z,61.14
2017-08-29T02:33:34.226Z,61.33
2017-08-29T02:34:14.681Z,61.33
2017-08-29T02:34:55.129Z,61.24
2017-08-29T02:35:35.583Z,61.14
2017-08-29T02:36:16.048Z,61.33
2017-08-29T02:36:56.487Z,61.33
2017-08-29T02:37:36.939Z,61.33
2017-08-29T02:38:17.401Z,61.14
2017-08-29T02:38:57.857Z,61.33
2017-08-29T02:39:38.324Z,61.33
2017-08-29T02:40:18.779Z,61.24
2017-08-29T02:40:59.236Z,61.33
2017-08-29T02:41:39.693Z,61.14
2017-08-29T02:42:20.143Z,61.24
2017-08-29T02:43:00.711Z,61.33
2017-08-29T02:43:41.108Z,61.24
2017-08-29T02:44:21.568Z,61.24
2017-08-29T02:45:02.030Z,61.33
2017-08-29T02:45:42.485Z,61.33
2017-08-29T02:46:22.936Z,61.33
2017-08-29T02:47:03.393Z,61.33
2017-08-29T02:47:43.866Z,61.33
2017-08-29T02:48:24.317Z,61.24
2017-08-29T02:49:04.781Z,61.24
2017-08-29T02:49:45.223Z,61.24
2017-08-29T02:50:25.676Z,61.33
2017-08-29T02:51:06.140Z,61.24
2017-08-29T02:51:46.588Z,61.24
2017-08-29T02:52:27.034Z,61.04
2017-08-29T02:53:07.488Z,61.24
2017-08-29T02:53:47.962Z,61.33
2017-08-29T02:54:28.408Z,61.04
2017-08-29T02:56:46.356Z,61.24
2017-08-29T02:57:26.801Z,61.14
2017-08-29T02:58:07.253Z,61.14
2017-08-29T02:58:47.709Z,61.24
2017-08-29T02:59:28.161Z,61.14
2017-08-29T03:00:08.615Z,61.14
2017-08-29T03:00:49.071Z,61.14
2017-08-29T03:01:29.529Z,61.24
2017-08-29T03:02:09.982Z,61.33
2017-08-29T03:02:50.439Z,61.33
2017-08-29T03:03:30.893Z,61.04
2017-08-29T03:04:11.343Z,61.04
2017-08-29T03:04:51.804Z,61.33
2017-08-29T03:05:32.253Z,61.14
2017-08-29T03:06:12.721Z,61.04
2017-08-29T03:06:53.168Z,61.14
2017-08-29T03:07:33.626Z,61.04
2017-08-29T03:08:15.112Z,61.14
2017-08-29T03:08:55.561Z,61.14
2017-08-29T03:09:36.024Z,61.04
2017-08-29T03:10:16.478Z,61.14
2017-08-29T03:10:56.919Z,61.14
2017-08-29T03:11:37.374Z,61.14
2017-08-29T03:12:17.831Z,61.14
2017-08-29T03:12:58.274Z,60.94
2017-08-29T03:13:38.737Z,60.94
2017-08-29T03:14:19.178Z,60.94
2017-08-29T03:14:59.633Z,61.14
2017-08-29T03:15:40.091Z,61.43
2017-08-29T03:16:20.545Z,61.43
2017-08-29T03:17:01.055Z,61.43
2017-08-29T03:17:41.516Z,61.43
2017-08-29T03:18:21.984Z,61.43
2017-08-29T03:19:02.425Z,61.33
2017-08-29T03:19:42.908Z,61.14
2017-08-29T03:20:23.358Z,60.94
2017-08-29T03:21:03.903Z,61.14
2017-08-29T03:22:51.427Z,61.33
2017-08-29T03:23:31.979Z,61.33
2017-08-29T03:24:12.437Z,61.24
2017-08-29T03:24:52.884Z,61.43
2017-08-29T03:25:33.369Z,61.14
2017-08-29T03:26:13.846Z,61.14
2017-08-29T03:26:54.275Z,61.24
2017-08-29T03:27:34.841Z,61.24
2017-08-29T03:28:15.315Z,61.24
2017-08-29T03:28:55.748Z,61.24
2017-08-29T03:29:36.205Z,61.33
2017-08-29T03:30:16.665Z,61.14
2017-08-29T03:30:57.122Z,61.52
2017-08-29T03:31:37.558Z,61.62
2017-08-29T03:32:18.009Z,61.52
2017-08-29T03:32:58.473Z,61.62
2017-08-29T03:33:38.927Z,61.52
2017-08-29T03:34:19.388Z,61.62
2017-08-29T03:34:59.832Z,61.72
2017-08-29T03:35:40.296Z,61.72
2017-08-29T03:36:20.756Z,61.82
2017-08-29T03:37:01.210Z,61.62
2017-08-29T03:37:41.663Z,61.72
2017-08-29T03:38:22.129Z,61.62
2017-08-29T03:39:02.571Z,61.52
2017-08-29T03:39:43.031Z,61.82
2017-08-29T03:40:23.489Z,61.52
2017-08-29T03:41:03.948Z,61.62
2017-08-29T03:41:44.408Z,61.43
2017-08-29T03:42:24.862Z,61.52
2017-08-29T03:43:05.315Z,61.49
2017-08-29T03:43:45.764Z,61.62
2017-08-29T03:44:26.225Z,61.62
2017-08-29T03:45:06.677Z,61.59
2017-08-29T03:45:47.149Z,61.4
2017-08-29T03:46:27.601Z,61.43
2017-08-29T03:47:08.057Z,61.4
2017-08-29T03:47:48.509Z,61.43
2017-08-29T03:48:28.952Z,61.72
2017-08-29T03:49:09.404Z,61.4
2017-08-29T03:49:49.859Z,61.49
2017-08-29T03:50:30.319Z,61.52
2017-08-29T03:51:10.772Z,61.59
2017-08-29T03:51:51.227Z,61.52
2017-08-29T03:52:31.734Z,61.43
2017-08-29T03:53:12.192Z,61.52
2017-08-29T03:53:52.643Z,61.49
2017-08-29T03:54:33.093Z,61.59
2017-08-29T03:55:13.554Z,61.43
2017-08-29T03:55:54.007Z,61.62
2017-08-29T03:56:34.462Z,61.3
2017-08-29T03:57:14.916Z,61.88
2017-08-29T03:57:55.371Z,61.69
2017-08-29T03:58:35.823Z,61.88
2017-08-29T03:59:16.273Z,61.88
2017-08-29T03:59:56.753Z,61.72
2017-08-29T04:00:37.173Z,61.52
2017-08-29T04:01:17.633Z,61.59
2017-08-29T04:01:58.077Z,61.72
2017-08-29T04:02:38.537Z,61.69
2017-08-29T04:03:18.985Z,61.69
2017-08-29T04:03:59.444Z,61.69
2017-08-29T04:04:39.907Z,61.69
2017-08-29T04:05:20.366Z,61.52
2017-08-29T04:06:00.824Z,61.49
2017-08-29T04:06:41.296Z,61.52
2017-08-29T04:07:21.728Z,61.59
2017-08-29T04:08:02.169Z,61.3
2017-08-29T04:08:42.625Z,61.88
2017-08-29T04:09:23.077Z,61.59
2017-08-29T04:10:03.527Z,61.69
2017-08-29T04:10:44.005Z,61.49
2017-08-29T04:11:24.444Z,61.88
2017-08-29T04:12:04.898Z,61.79
2017-08-29T04:12:45.350Z,61.98
2017-08-29T04:13:25.805Z,61.88
2017-08-29T04:15:23.514Z,61.69
2017-08-29T04:16:03.964Z,61.88
2017-08-29T04:16:44.411Z,61.88
2017-08-29T04:17:24.868Z,61.98
2017-08-29T04:18:05.322Z,61.88
2017-08-29T04:18:45.772Z,61.79
2017-08-29T04:19:26.316Z,61.79
2017-08-29T04:20:06.782Z,61.88
2017-08-29T04:20:47.230Z,61.79
2017-08-29T04:21:27.691Z,61.98
2017-08-29T04:22:08.144Z,62.07
2017-08-29T04:22:48.601Z,62.07
2017-08-29T04:23:29.055Z,61.98
2017-08-29T04:24:09.517Z,62.07
2017-08-29T04:24:49.977Z,62.56
2017-08-29T04:25:30.422Z,61.79
2017-08-29T04:26:10.872Z,61.88
2017-08-29T04:26:51.325Z,61.69
2017-08-29T04:27:31.777Z,62.46
2017-08-29T04:28:12.245Z,62.37
2017-08-29T04:28:52.706Z,62.17
2017-08-29T04:29:33.164Z,62.07
2017-08-29T04:30:13.615Z,62.27
2017-08-29T04:30:54.072Z,62.17
2017-08-29T04:31:34.537Z,62.27
2017-08-29T04:32:14.987Z,62.27
2017-08-29T04:32:55.449Z,62.27
2017-08-29T04:33:35.894Z,62.37
2017-08-29T04:34:16.348Z,62.27
2017-08-29T04:34:56.795Z,62.37
2017-08-29T04:35:37.239Z,62.07
2017-08-29T04:36:17.699Z,62.07
2017-08-29T04:36:58.156Z,62.37
2017-08-29T04:37:38.615Z,62.75
2017-08-29T04:38:19.077Z,62.37
2017-08-29T04:38:59.529Z,62.37
2017-08-29T04:39:39.982Z,62.46
2017-08-29T04:40:20.429Z,62.07
2017-08-29T04:41:00.887Z,62.75
2017-08-29T04:41:41.369Z,62.27
2017-08-29T04:42:21.873Z,62.37
2017-08-29T04:43:02.332Z,62.27
2017-08-29T04:43:42.790Z,62.37
2017-08-29T04:44:23.259Z,62.46
2017-08-29T04:45:03.748Z,62.37
2017-08-29T04:45:44.183Z,62.75
2017-08-29T04:46:24.631Z,62.46
2017-08-29T04:47:05.086Z,62.46
2017-08-29T04:47:45.543Z,62.66
2017-08-29T04:48:25.996Z,62.46
2017-08-29T04:49:06.443Z,62.37
2017-08-29T04:49:46.890Z,62.37
2017-08-29T04:50:27.353Z,62.27
2017-08-29T04:51:07.804Z,62.37
2017-08-29T04:51:48.265Z,62.46
2017-08-29T04:52:28.746Z,62.37
2017-08-29T04:54:41.493Z,62.37
2017-08-29T04:55:21.944Z,62.37
2017-08-29T04:56:02.384Z,62.37
2017-08-29T04:56:42.840Z,62.37
2017-08-29T04:57:23.274Z,62.37
2017-08-29T04:58:03.730Z,62.27
2017-08-29T04:58:44.183Z,62.17
2017-08-29T04:59:24.645Z,62.37
2017-08-29T05:00:05.098Z,62.27
2017-08-29T05:00:45.552Z,62.27
2017-08-29T05:01:26.002Z,62.27
2017-08-29T05:02:06.619Z,62.27
2017-08-29T05:02:47.073Z,62.17
2017-08-29T05:03:27.513Z,62.17
2017-08-29T05:04:07.961Z,62.27
2017-08-29T05:04:48.412Z,62.27
2017-08-29T05:05:28.866Z,62.27
2017-08-29T05:06:09.331Z,62.27
2017-08-29T05:06:49.780Z,62.27
2017-08-29T05:07:30.234Z,62.27
2017-08-29T05:08:10.690Z,62.27
2017-08-29T05:08:51.139Z,62.27
2017-08-29T05:09:31.599Z,62.27
2017-08-29T05:10:12.060Z,62.27
2017-08-29T05:10:52.509Z,62.37
2017-08-29T05:11:32.973Z,62.37
2017-08-29T05:12:13.440Z,62.37
2017-08-29T05:12:53.894Z,62.37
2017-08-29T05:13:34.354Z,62.27
2017-08-29T05:14:14.810Z,62.37
2017-08-29T05:14:55.265Z,62.27
2017-08-29T05:15:35.717Z,62.27
2017-08-29T05:16:16.166Z,62.46
2017-08-29T05:16:56.627Z,62.37
2017-08-29T05:17:37.078Z,62.37
2017-08-29T05:18:17.535Z,62.37
2017-08-29T05:18:57.993Z,62.17
2017-08-29T05:19:38.451Z,62.37
2017-08-29T05:20:18.903Z,62.37
2017-08-29T05:20:59.363Z,62.37
2017-08-29T05:21:39.841Z,62.37
2017-08-29T05:22:20.272Z,62.17
2017-08-29T05:23:00.716Z,62.27
2017-08-29T05:23:41.166Z,62.37
2017-08-29T05:24:21.616Z,62.27
2017-08-29T05:25:02.070Z,62.37
2017-08-29T05:25:42.533Z,62.27
2017-08-29T05:26:23.003Z,62.27
2017-08-29T05:27:03.461Z,62.27
2017-08-29T05:27:43.912Z,62.46
2017-08-29T05:28:24.372Z,62.37
2017-08-29T05:29:04.831Z,62.27
2017-08-29T05:29:45.289Z,62.37
2017-08-29T05:30:25.746Z,62.37
2017-08-29T05:31:06.345Z,62.07
2017-08-29T05:31:46.805Z,62.07
2017-08-29T05:32:27.258Z,62.56
2017-08-29T05:33:07.712Z,62.37
2017-08-29T05:33:48.181Z,62.27
2017-08-29T05:34:28.629Z,62.27
2017-08-29T05:35:09.091Z,62.27
2017-08-29T05:35:49.548Z,62.27
2017-08-29T05:36:30.018Z,62.27
2017-08-29T05:37:10.470Z,62.27
2017-08-29T05:37:50.923Z,62.07
2017-08-29T05:38:31.375Z,62.37
2017-08-29T05:39:11.832Z,61.98
2017-08-29T05:39:52.295Z,62.37
2017-08-29T05:40:32.754Z,62.07
2017-08-29T05:41:13.207Z,61.88
2017-08-29T05:41:53.660Z,61.88
2017-08-29T05:42:34.111Z,61.98
2017-08-29T05:43:14.565Z,61.98
2017-08-29T05:43:55.019Z,61.79
2017-08-29T05:44:35.486Z,61.79
2017-08-29T05:45:15.948Z,61.88
2017-08-29T05:45:56.393Z,61.79
2017-08-29T05:46:36.845Z,61.69
2017-08-29T05:47:17.311Z,61.49
2017-08-29T05:47:57.759Z,62.1
2017-08-29T05:48:38.226Z,61.43
2017-08-29T05:49:18.713Z,61.59
2017-08-29T05:49:59.162Z,61.43
2017-08-29T05:50:39.629Z,61.59
2017-08-29T05:51:20.084Z,61.49
2017-08-29T05:52:00.539Z,61.43
2017-08-29T05:52:40.991Z,61.72
2017-08-29T05:53:21.447Z,61.62
2017-08-29T05:54:01.907Z,61.79
2017-08-29T05:54:42.360Z,61.91
2017-08-29T05:55:22.820Z,61.43
2017-08-29T05:56:03.274Z,61.43
2017-08-29T05:56:43.728Z,61.62
2017-08-29T05:57:24.175Z,61.72
2017-08-29T05:58:04.629Z,61.62
2017-08-29T05:58:45.082Z,61.62
2017-08-29T05:59:25.538Z,61.72
2017-08-29T06:00:05.993Z,61.72
2017-08-29T06:00:46.452Z,61.72
2017-08-29T06:01:26.899Z,61.72
2017-08-29T06:02:07.347Z,61.52
2017-08-29T06:02:47.806Z,61.82
2017-08-29T06:03:28.254Z,61.33
2017-08-29T06:04:08.714Z,61.33
2017-08-29T06:04:49.168Z,61.24
2017-08-29T06:05:29.625Z,61.14
2017-08-29T06:06:10.074Z,60.85
2017-08-29T06:06:50.524Z,60.85
2017-08-29T06:07:30.987Z,61.14
2017-08-29T06:08:11.440Z,61.14
2017-08-29T06:08:51.892Z,61.04
2017-08-29T06:09:32.382Z,61.24
2017-08-29T06:10:12.832Z,61.14
2017-08-29T06:10:53.279Z,61.04
2017-08-29T06:11:33.730Z,61.14
2017-08-29T06:12:14.185Z,61.04
2017-08-29T06:12:54.638Z,61.24
2017-08-29T06:13:35.091Z,61.24
2017-08-29T06:14:15.546Z,61.14
2017-08-29T06:14:56.006Z,61.24
2017-08-29T06:15:36.475Z,60.85
2017-08-29T06:16:16.923Z,60.94
2017-08-29T06:16:57.386Z,61.33
2017-08-29T06:17:37.830Z,61.14
2017-08-29T06:18:18.286Z,60.94
2017-08-29T06:18:58.744Z,61.07
2017-08-29T06:19:39.179Z,61.33
2017-08-29T06:20:19.640Z,61.07
2017-08-29T06:21:00.089Z,61.26
2017-08-29T06:21:40.546Z,60.65
2017-08-29T06:22:21.016Z,60.78
2017-08-29T06:23:01.455Z,60.55
2017-08-29T06:23:41.912Z,60.58
2017-08-29T06:24:22.369Z,60.75
2017-08-29T06:25:02.825Z,60.78
2017-08-29T06:25:43.278Z,60.97
2017-08-29T06:26:23.733Z,60.75
2017-08-29T06:27:04.333Z,60.88
2017-08-29T06:27:44.797Z,60.88
2017-08-29T06:28:25.241Z,60.88
2017-08-29T06:29:05.704Z,60.88
2017-08-29T06:29:46.157Z,60.78
2017-08-29T06:30:26.603Z,60.78
2017-08-29T06:31:07.053Z,60.94
2017-08-29T06:31:47.498Z,60.58
2017-08-29T06:32:27.950Z,60.78
2017-08-29T06:33:08.436Z,60.88
2017-08-29T06:33:48.879Z,60.78
2017-08-29T06:34:29.360Z,60.68
2017-08-29T06:35:09.814Z,60.88
2017-08-29T06:35:50.270Z,60.58
2017-08-29T06:36:30.725Z,60.58
2017-08-29T06:37:11.181Z,60.39
2017-08-29T06:37:51.637Z,60.3
2017-08-29T06:38:32.091Z,60.49
2017-08-29T06:39:12.595Z,60.49
2017-08-29T06:39:53.049Z,60.1
2017-08-29T06:40:33.505Z,60.1
2017-08-29T06:41:13.971Z,60.39
2017-08-29T06:41:54.427Z,60.2
2017-08-29T06:42:34.889Z,60.2
2017-08-29T06:44:27.495Z,60.39
2017-08-29T06:45:07.954Z,60.39
2017-08-29T06:45:48.404Z,60.49
2017-08-29T06:46:28.915Z,60.39
2017-08-29T06:47:09.364Z,60
2017-08-29T06:47:49.814Z,60
2017-08-29T06:48:30.277Z,59.91
2017-08-29T06:49:10.726Z,59.91
2017-08-29T06:49:51.177Z,60.78
2017-08-29T06:50:31.625Z,60.49
2017-08-29T06:51:12.080Z,59.91
2017-08-29T06:51:52.533Z,60.1
2017-08-29T06:52:32.986Z,60.1
2017-08-29T06:53:13.443Z,59.91
2017-08-29T06:53:53.894Z,59.74
2017-08-29T06:54:34.349Z,60.32
2017-08-29T06:55:14.807Z,60.13
2017-08-29T06:55:55.256Z,59.94
2017-08-29T06:56:35.703Z,59.74
2017-08-29T06:57:16.161Z,60.03
2017-08-29T06:57:56.609Z,59.84
2017-08-29T06:58:37.057Z,59.84
2017-08-29T06:59:17.513Z,60.13
2017-08-29T06:59:57.965Z,60.23
2017-08-29T07:00:38.410Z,60.03
2017-08-29T07:01:18.869Z,60.13
2017-08-29T07:01:59.325Z,59.84
2017-08-29T07:02:39.780Z,59.74
2017-08-29T07:03:20.230Z,59.94
2017-08-29T07:04:00.689Z,59.94
2017-08-29T07:04:41.141Z,59.84
2017-08-29T07:05:21.595Z,59.94
2017-08-29T07:06:02.257Z,59.84
2017-08-29T07:06:42.620Z,59.74
2017-08-29T07:07:23.073Z,59.74
2017-08-29T07:08:03.637Z,59.64
2017-08-29T07:08:44.065Z,59.64
2017-08-29T07:09:24.501Z,59.77
2017-08-29T07:10:04.963Z,59.55
2017-08-29T07:10:45.426Z,59.64
2017-08-29T07:11:25.872Z,59.45
2017-08-29T07:12:06.325Z,59.48
2017-08-29T07:12:46.780Z,59.19
2017-08-29T07:13:27.384Z,59.09
2017-08-29T07:14:07.827Z,59
2017-08-29T07:14:48.279Z,59.28
2017-08-29T07:15:28.720Z,59.58
2017-08-29T07:16:09.172Z,59.38
2017-08-29T07:16:49.629Z,59.38
2017-08-29T07:17:30.072Z,59.48
2017-08-29T07:18:10.524Z,59.48
2017-08-29T07:18:50.976Z,59.38
2017-08-29T07:19:31.502Z,59.38
2017-08-29T07:20:11.957Z,59.38
2017-08-29T07:20:52.410Z,59.58
2017-08-29T07:21:32.865Z,59.09
2017-08-29T07:22:13.320Z,59
2017-08-29T07:22:53.776Z,59.09
2017-08-29T07:23:34.229Z,59.09
2017-08-29T07:24:14.686Z,58.7
2017-08-29T07:24:55.135Z,58.7
2017-08-29T07:25:35.591Z,58.7
2017-08-29T07:26:16.038Z,58.7
2017-08-29T07:26:56.491Z,58.61
2017-08-29T07:27:36.945Z,58.7
2017-08-29T07:28:17.402Z,58.9
2017-08-29T07:28:57.851Z,58.8
2017-08-29T07:29:38.278Z,58.7
2017-08-29T07:30:18.731Z,58.83
2017-08-29T07:30:59.184Z,59.09
2017-08-29T07:31:39.644Z,59
2017-08-29T07:32:20.090Z,58.61
2017-08-29T07:33:00.555Z,58.64
2017-08-29T07:33:41.007Z,58.64
2017-08-29T07:34:21.454Z,58.34
2017-08-29T07:35:01.920Z,58.73
2017-08-29T07:35:42.380Z,58.44
2017-08-29T07:36:22.837Z,58.64
2017-08-29T07:37:03.292Z,58.64
2017-08-29T07:37:43.746Z,58.54
2017-08-29T07:38:24.204Z,57.96
2017-08-29T07:39:04.661Z,58.15
2017-08-29T07:39:45.120Z,58.25
2017-08-29T07:40:25.573Z,58.15
2017-08-29T07:41:06.144Z,58.34
2017-08-29T07:41:46.590Z,58.05
2017-08-29T07:42:27.045Z,58.25
2017-08-29T07:43:07.494Z,58.05
2017-08-29T07:43:47.943Z,57.96
2017-08-29T07:44:28.404Z,58.34
2017-08-29T07:45:08.857Z,58.44
2017-08-29T07:45:49.313Z,58.25
2017-08-29T07:46:29.771Z,57.86
2017-08-29T07:47:10.216Z,58.05
2017-08-29T07:47:50.671Z,58.25
2017-08-29T07:48:31.123Z,58.15
2017-08-29T07:49:11.577Z,57.89
2017-08-29T07:49:52.041Z,57.79
2017-08-29T07:50:32.498Z,57.6
2017-08-29T07:51:12.962Z,57.79
2017-08-29T07:51:53.416Z,57.5
2017-08-29T07:52:33.875Z,57.69
2017-08-29T07:53:14.314Z,58.08
2017-08-29T07:53:54.767Z,57.98
2017-08-29T07:54:35.225Z,57.79
2017-08-29T07:55:15.679Z,57.5
2017-08-29T07:55:56.135Z,57.01
2017-08-29T07:56:36.583Z,57.01
2017-08-29T07:57:17.042Z,57.33
2017-08-29T07:57:57.495Z,57.69
2017-08-29T07:58:37.949Z,57.4
2017-08-29T07:59:18.397Z,57.79
2017-08-29T07:59:58.854Z,57.23
2017-08-29T08:00:39.302Z,57.43
2017-08-29T08:01:19.763Z,57.23
2017-08-29T08:02:00.212Z,57.53
2017-08-29T08:02:40.662Z,57.53
2017-08-29T08:03:21.114Z,57.23
2017-08-29T08:04:01.562Z,56.75
2017-08-29T08:04:42.016Z,56.85
2017-08-29T08:05:22.502Z,56.95
2017-08-29T08:06:02.964Z,56.85
2017-08-29T08:06:43.410Z,56.65
2017-08-29T08:07:23.868Z,56.85
2017-08-29T08:08:04.363Z,56.85
2017-08-29T08:08:44.837Z,56.56
2017-08-29T08:09:25.294Z,56.36
2017-08-29T08:10:05.751Z,56.36
2017-08-29T08:10:46.210Z,56.65
2017-08-29T08:11:26.668Z,56.56
2017-08-29T08:13:44.660Z,56.65
2017-08-29T08:14:25.128Z,56.46
2017-08-29T08:15:05.583Z,56.46
2017-08-29T08:15:46.026Z,56.68
2017-08-29T08:16:26.488Z,56.1
2017-08-29T08:17:06.943Z,56.1
2017-08-29T08:17:47.390Z,56.07
2017-08-29T08:18:27.849Z,55.9
2017-08-29T08:19:08.294Z,56.16
2017-08-29T08:19:48.751Z,56.1
2017-08-29T08:20:29.201Z,55.8
2017-08-29T08:21:09.659Z,55.9
2017-08-29T08:21:50.155Z,56.1
2017-08-29T08:22:30.616Z,55.8
2017-08-29T08:23:11.071Z,56.1
2017-08-29T08:23:51.525Z,56.29
2017-08-29T08:24:32.016Z,56
2017-08-29T08:25:12.468Z,55.61
2017-08-29T08:25:52.923Z,55.8
2017-08-29T08:26:33.369Z,55.61
2017-08-29T08:27:13.835Z,56
2017-08-29T08:27:54.288Z,55.61
2017-08-29T08:28:34.733Z,55.8
2017-08-29T08:29:15.194Z,55.51
2017-08-29T08:29:55.656Z,55.9
2017-08-29T08:30:36.111Z,55.61
2017-08-29T08:31:16.569Z,55.71
2017-08-29T08:31:57.021Z,55.64
2017-08-29T08:32:37.470Z,55.25
2017-08-29T08:33:17.925Z,55.54
2017-08-29T08:33:58.381Z,55.35
2017-08-29T08:34:38.846Z,55.05
2017-08-29T08:35:19.297Z,55.35
2017-08-29T08:35:59.749Z,55.25
2017-08-29T08:36:40.213Z,55.15
2017-08-29T08:37:20.672Z,55.25
2017-08-29T08:38:01.122Z,55.35
2017-08-29T08:38:41.583Z,55.25
2017-08-29T08:39:22.032Z,55.44
2017-08-29T08:40:02.487Z,55.44
2017-08-29T08:40:42.945Z,55.35
2017-08-29T08:41:23.407Z,55.15
2017-08-29T08:42:03.935Z,55.35
2017-08-29T08:43:51.437Z,54.66
2017-08-29T08:44:31.983Z,54.96
2017-08-29T08:45:12.443Z,54.86
2017-08-29T08:45:52.886Z,54.47
2017-08-29T08:46:33.339Z,54.57
2017-08-29T08:47:13.813Z,54.57
2017-08-29T08:47:54.268Z,54.57
2017-08-29T08:48:34.713Z,54.76
2017-08-29T08:49:15.171Z,54.66
2017-08-29T08:49:55.630Z,54.69
2017-08-29T08:50:36.090Z,54.69
2017-08-29T08:51:16.537Z,54.5
2017-08-29T08:51:56.989Z,54.5
2017-08-29T08:52:37.433Z,54.21
2017-08-29T08:53:17.888Z,54.3
2017-08-29T08:53:58.358Z,54.3
2017-08-29T08:54:38.815Z,54.3